Cleveland, OH (44130)

8:58 PM EST on February 10, 2016 (GMT -0500)
Brook Park | | Change Station
CLOSE
Current Station
Personal Weather Station
Location: Brook Park, OH
Elevation: 832 ft
Nearby Weather Stations
Active Advisory: Lake Effect Snow Advisory Active Notice: Local Storm Report

Elev 832 ft 41.39 °N, 81.79 °W | Updated 0 second ago

Snow
Snow
18.5 °F
Feels Like 10 °F
N
6.4
Wind Variable Wind from WSW
Gusts 9.2 mph

Today
High -- | Low -- °F
--% Chance of Precip.
Yesterday
High -- | Low -- °F
Precip. -- in
Pressure 29.99 in
Visibility 2.0 miles
Clouds Mostly Cloudy 1500 ft
Overcast 2100 ft
Windchill 10 °F
Dew Point 16 °F
Humidity 89%
Rainfall 0.05 in
Snow Depth Not available.
7:29 AM 5:54 PM
Waxing Crescent, 8% visible
METAR KCLE 110151Z 25008KT 2SM -SN BR BKN015 OVC021 M08/M10 A2995 RMK AO2 SLP154 P0002 T10781100 $
Pressure 29.99 in
Visibility 2.0 miles
Clouds Mostly Cloudy 1500 ft
Overcast 2100 ft
Windchill 10 °F
Dew Point 16 °F
Humidity 89%
Rainfall 0.05 in
Snow Depth Not available.
7:29 AM 5:54 PM
Waxing Crescent, 8% visible
METAR KCLE 110151Z 25008KT 2SM -SN BR BKN015 OVC021 M08/M10 A2995 RMK AO2 SLP154 P0002 T10781100 $

10-Day Weather Forecast

Almanac

Astronomy

Feb. 10, 2016 Rise Set
Actual Time
Civil Twilight
Nautical Twilight
Astronomical Twilight
Moon
Length of Visible Light
Length of Day
Tomorrow will be .
, % of the Moon is Illuminated

Today's Extremes

State Highs State Lows

Community

WunderPhotos

Upload Photos

1,891,970 photos uploaded!

WunderBlog® & News

Nearby

Air Quality

  Air Quality AQ Index Pollutant
Not available.

Snow Depth

Station Depth Elevation

Earthquake Activity

City Distance Mag. Time & Date
Minimum magnitude displayed is 2.5.

Coastal Water Temperatures

Place Temperature

Stations

Nearby Weather Stations

Station Location Temp. Windchill Dew Point Humidity Wind Precip. Elev Updated Type
                   

Watches & Warnings

Lake Effect Snow Advisory
Issued: 3:51 PM EST Feb. 10, 2016 – National Weather Service

... Lake effect Snow Advisory remains in effect until 4 PM EST
Thursday...

* accumulations... 2 to 5 inches of snow.

* Timing... snow showers will continue tonight and into Thursday.
The snow showers are expected to diminish in coverage and
intensity on Thursday... especially in the afternoon.

* Impacts... snow covered roads and reduced visibility during
heavier snow showers and squalls.

* Winds... northwest 15 to 25 mph with gusts up to 30 mph.

* Temperatures... 11 to 23.

Precautionary/preparedness actions...

In lake effect snow the weather can vary from locally heavy snow
in narrow bands to dry weather just a few miles away. If you will
be traveling across the region be prepared for rapid changes in
Road and visibility conditions. Stay tuned to NOAA Weather Radio
for further details or updates.